Decoded Metar for KDDH (BENNINGTON in VT, USA) (IATA:DDH) | Meteo·Mobile Aviation Weather
aviador You're here:

KDDH Decoded Metar

BENNINGTON in VT, USA
Report Time2018-10-22 14:54:00
UTC Time2018-10-22 15:04:11
Flight Rules vfr VFR
Wind290° at 08 kt
W.Decomp.*RWY 31: 8.0 kt HW 0.8 kt LCW
W.Rank290° ranks 2
Current wind is above 290° avg. (7.1)
Visibility9999 m
Phenomena:N/A
Clouds:Few 027 Hf
Overcast 060 Hf
Expected CloudBase > 3,200 ft AGL from Temp-Dew spread
Ceiling6,000 ft
Temp06°C (ISA -7)
Dew Point-2°C (57% RH)
AAT0.9°C
QNH1021 hPa
Density Alt-285 ft
Elevation801 ft
Report Wrong Elevation
Raw Report
METAR KDDH 221454Z AUTO 29008KT 10SM FEW027 OVC060 06/M02 A3016 RMK
AO2 SLP217 T00611017 51004=

Extra information for KDDH:More info

Metar Taf Metar & Taf Last 4 Metars F.Rules Stats Wind Profile Meteogram Temp Stats Airport Information Weather charts Add Link Nearby VenuesMetar ALERT Operation Metar Decoded Social comments

AIRNAV info for KDDH